createdAt,value
2023-01-08T00:01:28.841Z,90.76
2023-01-08T00:03:56.624Z,90.79
2023-01-08T00:06:24.800Z,90.82
2023-01-08T00:08:52.601Z,90.87
2023-01-08T00:11:22.121Z,90.86
2023-01-08T00:13:49.434Z,90.78
2023-01-08T00:16:19.607Z,90.79
2023-01-08T00:18:47.731Z,90.73
2023-01-08T00:21:15.458Z,90.63
2023-01-08T00:23:43.359Z,90.61
2023-01-08T00:26:11.773Z,90.65
2023-01-08T00:28:40.401Z,90.68
2023-01-08T00:31:10.978Z,90.69
2023-01-08T00:33:40.334Z,90.67
2023-01-08T00:36:11.471Z,90.66
2023-01-08T00:38:39.278Z,90.71
2023-01-08T00:41:07.395Z,90.61
2023-01-08T00:43:35.323Z,90.64
2023-01-08T00:46:03.432Z,90.68
2023-01-08T00:48:33.111Z,90.63
2023-01-08T00:51:02.891Z,90.62
2023-01-08T00:53:30.790Z,90.59
2023-01-08T00:56:04.544Z,90.57
2023-01-08T00:58:32.635Z,90.51
2023-01-08T01:01:00.432Z,90.50
2023-01-08T01:03:28.113Z,90.47
2023-01-08T01:06:07.917Z,90.51
2023-01-08T01:08:35.509Z,90.55
2023-01-08T01:11:11.037Z,90.58
2023-01-08T01:13:38.773Z,90.53
2023-01-08T01:16:06.909Z,90.46
2023-01-08T01:18:34.627Z,90.42
2023-01-08T01:21:03.203Z,90.47
2023-01-08T01:23:31.964Z,90.50
2023-01-08T01:25:59.822Z,90.49
2023-01-08T01:28:27.305Z,90.49
2023-01-08T01:30:57.163Z,90.47
2023-01-08T01:33:24.856Z,90.25
2023-01-08T01:36:02.960Z,90.21
2023-01-08T01:38:30.833Z,90.35
2023-01-08T01:40:59.277Z,90.48
2023-01-08T01:43:42.494Z,90.52
2023-01-08T01:46:38.503Z,90.60
2023-01-08T01:49:17.737Z,90.62
2023-01-08T01:51:53.286Z,90.65
2023-01-08T01:54:20.957Z,90.64
2023-01-08T01:56:49.328Z,90.72
2023-01-08T01:59:21.416Z,90.69
2023-01-08T02:01:50.226Z,90.61
2023-01-08T02:04:19.791Z,90.54
2023-01-08T02:07:05.069Z,90.44
2023-01-08T02:10:11.870Z,90.47
2023-01-08T02:12:57.241Z,90.49
2023-01-08T02:15:59.040Z,90.50
2023-01-08T02:18:50.336Z,90.49
2023-01-08T02:21:55.371Z,90.43
2023-01-08T02:24:48.629Z,90.48
2023-01-08T02:27:18.487Z,90.43
2023-01-08T02:29:48.048Z,90.43
2023-01-08T02:32:17.805Z,90.46
2023-01-08T02:34:45.565Z,90.49
2023-01-08T02:37:14.076Z,90.55
2023-01-08T02:40:02.673Z,90.53
2023-01-08T02:42:56.354Z,90.62
2023-01-08T02:45:47.434Z,90.59
2023-01-08T02:48:32.181Z,90.64
2023-01-08T02:51:07.430Z,90.60
2023-01-08T02:53:38.296Z,90.57
2023-01-08T02:56:11.050Z,90.60
2023-01-08T02:58:40.988Z,90.63
2023-01-08T03:01:12.206Z,90.65
2023-01-08T03:03:44.143Z,90.69
2023-01-08T03:06:16.189Z,90.61
2023-01-08T03:08:48.153Z,90.64
2023-01-08T03:11:20.764Z,90.68
2023-01-08T03:13:59.821Z,90.67
2023-01-08T03:16:42.129Z,90.66
2023-01-08T03:19:42.452Z,90.64
2023-01-08T03:22:13.970Z,90.69
2023-01-08T03:24:43.947Z,90.67
2023-01-08T03:27:16.738Z,90.64
2023-01-08T03:29:47.578Z,90.48
2023-01-08T03:32:17.615Z,90.49
2023-01-08T03:34:48.705Z,90.39
2023-01-08T03:37:21.917Z,90.37
2023-01-08T03:40:13.250Z,90.29
2023-01-08T03:42:41.284Z,90.34
2023-01-08T03:45:09.667Z,90.41
2023-01-08T03:47:39.723Z,90.41
2023-01-08T03:50:15.668Z,90.44
2023-01-08T03:52:43.540Z,90.42
2023-01-08T03:55:11.369Z,90.38
2023-01-08T03:57:38.965Z,90.36
2023-01-08T04:00:07.820Z,90.36
2023-01-08T04:02:35.689Z,90.36
2023-01-08T04:05:03.932Z,90.20
2023-01-08T04:07:31.624Z,89.98
2023-01-08T04:09:59.288Z,90.14
2023-01-08T04:12:27.124Z,90.23
2023-01-08T04:14:54.750Z,90.24
2023-01-08T04:17:22.275Z,90.24
2023-01-08T04:19:49.947Z,89.99
2023-01-08T04:22:17.921Z,90.03
2023-01-08T04:24:45.800Z,89.79
2023-01-08T04:27:13.488Z,89.97
2023-01-08T04:29:41.281Z,90.07
2023-01-08T04:32:08.952Z,90.15
2023-01-08T04:34:36.729Z,90.27
2023-01-08T04:37:04.614Z,90.19
2023-01-08T04:39:32.444Z,90.21
2023-01-08T04:42:00.137Z,90.02
2023-01-08T04:44:27.959Z,90.17
2023-01-08T04:46:55.509Z,90.27
2023-01-08T04:49:23.163Z,90.33
2023-01-08T04:51:50.695Z,90.43
2023-01-08T04:54:18.523Z,90.37
2023-01-08T04:56:46.121Z,90.34
2023-01-08T04:59:13.960Z,90.40
2023-01-08T05:01:41.597Z,90.45
2023-01-08T05:04:11.059Z,90.42
2023-01-08T05:06:40.604Z,90.41
2023-01-08T05:09:08.876Z,90.32
2023-01-08T05:11:37.245Z,90.22
2023-01-08T05:14:04.888Z,90.33
2023-01-08T05:16:32.629Z,90.48
2023-01-08T05:19:00.265Z,90.57
2023-01-08T05:21:28.160Z,90.58
2023-01-08T05:23:56.089Z,90.59
2023-01-08T05:26:23.844Z,90.62
2023-01-08T05:28:52.421Z,90.59
2023-01-08T05:31:20.366Z,90.67
2023-01-08T05:33:48.190Z,90.82
2023-01-08T05:36:15.844Z,90.94
2023-01-08T05:38:43.461Z,91.01
2023-01-08T05:41:11.631Z,91.11
2023-01-08T05:43:39.240Z,91.07
2023-01-08T05:46:07.041Z,91.14
2023-01-08T05:48:37.005Z,91.23
2023-01-08T05:51:05.341Z,91.22
2023-01-08T05:53:33.014Z,91.16
2023-01-08T05:56:09.110Z,90.87
2023-01-08T05:58:37.156Z,90.81
2023-01-08T06:01:12.473Z,90.91
2023-01-08T06:03:39.776Z,90.91
2023-01-08T06:06:09.474Z,90.91
2023-01-08T06:08:37.459Z,90.98
2023-01-08T06:11:08.356Z,91.01
2023-01-08T06:13:37.434Z,90.98
2023-01-08T06:16:05.831Z,90.96
2023-01-08T06:18:34.019Z,90.86
2023-01-08T06:21:03.971Z,90.92
2023-01-08T06:23:32.728Z,91.07
2023-01-08T06:26:03.601Z,91.28
2023-01-08T06:28:32.276Z,91.48
2023-01-08T06:31:02.818Z,91.56
2023-01-08T06:33:32.693Z,91.65
2023-01-08T06:36:02.208Z,91.79
2023-01-08T06:38:36.697Z,92.01
2023-01-08T06:41:06.275Z,91.93
2023-01-08T06:43:36.359Z,91.98
2023-01-08T06:46:08.314Z,92.28
2023-01-08T06:48:37.024Z,92.45
2023-01-08T06:51:05.859Z,92.43
2023-01-08T06:53:33.735Z,92.25
2023-01-08T06:56:04.100Z,92.54
2023-01-08T06:58:32.058Z,92.60
2023-01-08T07:00:59.716Z,91.95
2023-01-08T07:03:27.842Z,91.78
2023-01-08T07:05:56.658Z,91.33
2023-01-08T07:08:24.672Z,91.32
2023-01-08T07:10:52.437Z,90.92
2023-01-08T07:13:22.111Z,90.70
2023-01-08T07:15:51.317Z,90.58
2023-01-08T07:18:18.957Z,90.33
2023-01-08T07:20:48.896Z,89.96
2023-01-08T07:23:16.671Z,89.92
2023-01-08T07:25:44.282Z,90.21
2023-01-08T07:28:12.736Z,89.86
2023-01-08T07:30:40.732Z,89.27
2023-01-08T07:33:08.602Z,88.70
2023-01-08T07:35:37.951Z,87.83
2023-01-08T07:38:05.715Z,86.30
2023-01-08T07:40:33.318Z,86.56
2023-01-08T07:43:03.303Z,86.16
2023-01-08T07:45:32.241Z,86.03
2023-01-08T07:48:00.694Z,85.68
2023-01-08T07:50:28.821Z,85.13
2023-01-08T07:53:00.811Z,84.69
2023-01-08T07:55:31.020Z,83.42
2023-01-08T07:58:00.814Z,84.03
2023-01-08T08:00:28.512Z,83.53
2023-01-08T08:02:56.468Z,83.76
2023-01-08T08:05:24.561Z,83.64
2023-01-08T08:07:52.117Z,83.48
2023-01-08T08:10:19.738Z,82.74
2023-01-08T08:12:48.101Z,82.92
2023-01-08T08:15:18.869Z,82.29
2023-01-08T08:17:49.425Z,82.08
2023-01-08T08:20:17.595Z,81.72
2023-01-08T08:22:45.435Z,81.94
2023-01-08T08:25:16.679Z,81.72
2023-01-08T08:27:47.785Z,81.41
2023-01-08T08:30:15.382Z,80.78
2023-01-08T08:32:43.152Z,80.44
2023-01-08T08:35:10.829Z,79.27
2023-01-08T08:37:38.467Z,78.76
2023-01-08T08:40:25.026Z,78.96
2023-01-08T08:43:03.899Z,78.71
2023-01-08T08:45:36.704Z,78.80
2023-01-08T08:50:55.556Z,78.75
2023-01-08T08:53:28.216Z,78.75
2023-01-08T08:56:01.165Z,78.85
2023-01-08T08:58:30.944Z,78.47
2023-01-08T09:01:03.384Z,77.65
2023-01-08T09:03:31.343Z,77.11
2023-01-08T09:05:59.955Z,77.25
2023-01-08T09:08:29.018Z,74.28
2023-01-08T09:10:56.880Z,75.71
2023-01-08T09:13:24.186Z,76.22
2023-01-08T09:15:51.988Z,75.78
2023-01-08T09:18:20.748Z,76.08
2023-01-08T09:20:48.694Z,76.50
2023-01-08T09:23:16.377Z,76.42
2023-01-08T09:25:44.264Z,75.73
2023-01-08T09:28:12.637Z,74.32
2023-01-08T09:30:43.582Z,73.93
2023-01-08T09:33:13.300Z,74.01
2023-01-08T09:35:43.955Z,74.74
2023-01-08T09:38:12.314Z,74.62
2023-01-08T09:40:50.491Z,74.34
2023-01-08T09:43:21.383Z,74.20
2023-01-08T09:45:54.221Z,72.61
2023-01-08T09:48:29.547Z,72.62
2023-01-08T09:50:57.548Z,72.71
2023-01-08T09:53:25.303Z,71.97
2023-01-08T09:56:09.126Z,72.30
2023-01-08T09:58:41.583Z,71.85
2023-01-08T10:01:14.236Z,72.14
2023-01-08T10:03:49.422Z,72.06
2023-01-08T10:06:17.087Z,71.59
2023-01-08T10:11:16.087Z,70.15
2023-01-08T10:13:52.704Z,69.86
2023-01-08T10:16:31.000Z,70.23
2023-01-08T10:19:01.964Z,69.39
2023-01-08T10:21:39.651Z,69.21
2023-01-08T10:24:08.375Z,69.55
2023-01-08T10:26:38.908Z,68.93
2023-01-08T10:29:17.212Z,68.20
2023-01-08T10:31:54.657Z,67.64
2023-01-08T10:34:53.067Z,67.20
2023-01-08T10:37:33.986Z,66.00
2023-01-08T10:40:25.812Z,67.20
2023-01-08T10:42:56.891Z,66.92
2023-01-08T10:45:29.123Z,66.36
2023-01-08T10:48:00.720Z,66.17
2023-01-08T10:50:33.132Z,66.10
2023-01-08T10:53:04.824Z,65.57
2023-01-08T10:55:37.078Z,66.09
2023-01-08T10:58:13.306Z,65.91
2023-01-08T11:00:41.715Z,65.77
2023-01-08T11:03:29.103Z,65.02
2023-01-08T11:05:59.085Z,64.65
2023-01-08T11:08:26.862Z,64.84
2023-01-08T11:11:00.233Z,64.03
2023-01-08T11:13:29.658Z,63.96
2023-01-08T11:16:07.683Z,63.76
2023-01-08T11:18:48.610Z,63.90
2023-01-08T11:21:27.934Z,62.71
2023-01-08T11:24:18.396Z,61.93
2023-01-08T11:26:57.945Z,62.13
2023-01-08T11:29:57.469Z,62.21
2023-01-08T11:32:46.354Z,62.68
2023-01-08T11:35:36.163Z,62.22
2023-01-08T11:38:08.014Z,62.49
2023-01-08T11:41:03.030Z,62.71
2023-01-08T11:44:04.494Z,62.70
2023-01-08T11:46:53.796Z,62.24
2023-01-08T11:49:49.153Z,62.58
2023-01-08T11:52:49.948Z,62.01
2023-01-08T11:55:42.666Z,61.73
2023-01-08T11:58:59.684Z,62.20
2023-01-08T12:01:44.974Z,61.92
2023-01-08T12:04:45.803Z,63.05
2023-01-08T12:07:48.028Z,63.34
2023-01-08T12:10:37.947Z,63.22
2023-01-08T12:13:23.642Z,63.33
2023-01-08T12:16:03.024Z,63.51
2023-01-08T12:18:45.515Z,63.40
2023-01-08T12:21:42.877Z,63.43
2023-01-08T12:24:37.595Z,63.34
2023-01-08T12:27:48.414Z,63.44
2023-01-08T12:30:24.181Z,63.44
2023-01-08T12:33:14.844Z,63.02
2023-01-08T12:35:53.717Z,62.73
2023-01-08T12:38:26.470Z,62.52
2023-01-08T12:41:08.736Z,62.01
2023-01-08T12:44:03.220Z,63.21
2023-01-08T12:46:37.838Z,63.75
2023-01-08T12:49:07.808Z,63.97
2023-01-08T12:52:01.997Z,64.01
2023-01-08T12:54:52.078Z,64.07
2023-01-08T12:57:31.735Z,64.54
2023-01-08T13:00:21.723Z,64.82
2023-01-08T13:03:03.083Z,64.86
2023-01-08T13:05:37.162Z,64.84
2023-01-08T13:08:25.551Z,64.89
2023-01-08T13:10:55.604Z,64.69
2023-01-08T13:13:33.013Z,64.97
2023-01-08T13:16:16.721Z,64.48
2023-01-08T13:18:59.908Z,64.65
2023-01-08T13:21:44.292Z,64.74
2023-01-08T13:24:37.745Z,65.04
2023-01-08T13:27:23.258Z,65.09
2023-01-08T13:29:51.847Z,65.17
2023-01-08T13:32:46.617Z,65.46
2023-01-08T13:35:25.821Z,65.65
2023-01-08T13:38:15.053Z,65.58
2023-01-08T13:40:50.688Z,65.59
2023-01-08T13:43:34.478Z,65.67
2023-01-08T13:46:10.623Z,65.67
2023-01-08T13:49:03.328Z,65.48
2023-01-08T13:51:44.790Z,65.55
2023-01-08T13:54:25.640Z,65.74
2023-01-08T13:56:58.502Z,65.66
2023-01-08T13:59:45.615Z,65.34
2023-01-08T14:02:27.444Z,65.33
2023-01-08T14:04:57.554Z,65.41
2023-01-08T14:07:26.622Z,65.23
2023-01-08T14:09:56.602Z,65.24
2023-01-08T14:12:25.222Z,65.21
2023-01-08T14:14:59.117Z,65.26
2023-01-08T14:17:31.877Z,65.33
2023-01-08T14:20:07.417Z,65.40
2023-01-08T14:22:37.123Z,65.55
2023-01-08T14:25:08.426Z,65.68
2023-01-08T14:27:42.964Z,65.77
2023-01-08T14:30:17.685Z,65.86
2023-01-08T14:32:47.440Z,66.03
2023-01-08T14:35:19.532Z,66.10
2023-01-08T14:37:47.039Z,66.25
2023-01-08T14:40:18.863Z,66.49
2023-01-08T14:42:48.723Z,66.69
2023-01-08T14:45:24.092Z,67.01
2023-01-08T14:48:18.440Z,67.43
2023-01-08T14:51:03.742Z,67.88
2023-01-08T14:53:36.339Z,68.32
2023-01-08T14:56:28.266Z,68.75
2023-01-08T14:58:58.020Z,69.12
2023-01-08T15:01:33.803Z,69.79
2023-01-08T15:04:20.450Z,70.78
2023-01-08T15:06:50.836Z,70.94
2023-01-08T15:09:32.061Z,71.10
2023-01-08T15:12:03.315Z,71.30
2023-01-08T15:14:36.388Z,71.51
2023-01-08T15:17:15.945Z,71.74
2023-01-08T15:19:52.453Z,71.88
2023-01-08T15:22:25.161Z,72.17
2023-01-08T15:25:02.353Z,72.33
2023-01-08T15:27:40.212Z,72.47
2023-01-08T15:30:39.749Z,72.69
2023-01-08T15:33:19.598Z,72.85
2023-01-08T15:35:48.668Z,73.05
2023-01-08T15:38:20.120Z,73.15
2023-01-08T15:40:48.474Z,73.40
2023-01-08T15:43:18.479Z,73.54
2023-01-08T15:45:48.195Z,73.74
2023-01-08T15:48:16.096Z,73.98
2023-01-08T15:50:45.095Z,74.56
2023-01-08T15:53:24.424Z,74.65
2023-01-08T15:55:52.138Z,74.80
2023-01-08T15:58:19.770Z,74.98
2023-01-08T16:00:47.411Z,75.28
2023-01-08T16:03:15.588Z,75.69
2023-01-08T16:05:44.755Z,75.94
2023-01-08T16:08:12.395Z,75.92
2023-01-08T16:10:40.079Z,76.00
2023-01-08T16:13:08.712Z,76.16
2023-01-08T16:15:39.380Z,76.29
2023-01-08T16:18:07.147Z,76.25
2023-01-08T16:20:34.808Z,76.29
2023-01-08T16:23:03.151Z,76.39
2023-01-08T16:25:32.624Z,76.38
2023-01-08T16:28:02.747Z,76.49
2023-01-08T16:30:30.506Z,76.51
2023-01-08T16:32:58.291Z,76.59
2023-01-08T16:35:26.239Z,76.54
2023-01-08T16:37:53.632Z,76.65
2023-01-08T16:40:21.256Z,76.70
2023-01-08T16:42:48.892Z,76.80
2023-01-08T16:45:17.194Z,76.87
2023-01-08T16:47:45.612Z,77.02
2023-01-08T16:50:13.386Z,77.18
2023-01-08T16:52:41.150Z,77.39
2023-01-08T16:55:10.425Z,77.53
2023-01-08T16:57:39.159Z,77.66
2023-01-08T17:00:08.608Z,77.85
2023-01-08T17:02:37.469Z,78.05
2023-01-08T17:05:06.824Z,78.21
2023-01-08T17:07:34.793Z,78.38
2023-01-08T17:10:03.274Z,78.53
2023-01-08T17:12:31.433Z,78.66
2023-01-08T17:14:59.425Z,78.79
2023-01-08T17:17:27.167Z,78.93
2023-01-08T17:19:54.991Z,78.96
2023-01-08T17:22:23.795Z,79.09
2023-01-08T17:24:51.577Z,79.37
2023-01-08T17:27:19.254Z,79.55
2023-01-08T17:29:46.937Z,79.55
2023-01-08T17:32:14.550Z,79.70
2023-01-08T17:34:42.322Z,79.90
2023-01-08T17:37:10.488Z,80.07
2023-01-08T17:39:38.761Z,80.10
2023-01-08T17:42:24.992Z,80.05
2023-01-08T17:44:55.172Z,80.04
2023-01-08T17:47:24.846Z,80.13
2023-01-08T17:49:57.905Z,80.22
2023-01-08T17:52:26.236Z,80.21
2023-01-08T17:54:54.134Z,80.24
2023-01-08T17:57:22.144Z,80.47
2023-01-08T17:59:49.907Z,80.49
2023-01-08T18:02:18.049Z,80.53
2023-01-08T18:04:46.034Z,80.59
2023-01-08T18:07:13.976Z,80.72
2023-01-08T18:09:41.720Z,80.79
2023-01-08T18:12:09.546Z,81.21
2023-01-08T18:14:38.546Z,80.99
2023-01-08T18:17:06.181Z,81.04
2023-01-08T18:19:34.144Z,81.11
2023-01-08T18:22:01.977Z,81.20
2023-01-08T18:24:29.848Z,81.21
2023-01-08T18:26:58.639Z,81.27
2023-01-08T18:29:26.962Z,81.33
2023-01-08T18:31:55.388Z,81.42
2023-01-08T18:34:23.405Z,81.39
2023-01-08T18:36:51.283Z,81.41
2023-01-08T18:39:19.191Z,81.44
2023-01-08T18:42:04.952Z,81.52
2023-01-08T18:44:32.255Z,81.57
2023-01-08T18:47:00.007Z,81.84
2023-01-08T18:49:27.696Z,81.77
2023-01-08T18:51:55.469Z,81.85
2023-01-08T18:54:23.417Z,81.98
2023-01-08T18:56:51.278Z,82.12
2023-01-08T18:59:19.199Z,82.54
2023-01-08T19:01:48.346Z,82.42
2023-01-08T19:04:18.207Z,82.50
2023-01-08T19:06:47.188Z,82.94
2023-01-08T19:09:16.896Z,83.13
2023-01-08T19:11:45.024Z,83.17
2023-01-08T19:14:14.062Z,83.38
2023-01-08T19:16:44.024Z,83.57
2023-01-08T19:19:11.943Z,83.57
2023-01-08T19:21:41.629Z,83.49
2023-01-08T19:24:09.602Z,83.59
2023-01-08T19:26:38.203Z,83.76
2023-01-08T19:29:06.277Z,83.76
2023-01-08T19:31:34.882Z,83.99
2023-01-08T19:34:04.661Z,84.17
2023-01-08T19:36:33.607Z,84.16
2023-01-08T19:39:10.711Z,84.48
2023-01-08T19:41:58.000Z,84.20
2023-01-08T19:44:31.650Z,84.23
2023-01-08T19:46:59.709Z,84.80
2023-01-08T19:49:28.249Z,84.69
2023-01-08T19:51:59.146Z,84.60
2023-01-08T19:54:29.485Z,84.83
2023-01-08T19:56:57.535Z,85.20
2023-01-08T19:59:27.809Z,85.32
2023-01-08T20:01:55.880Z,85.75
2023-01-08T20:04:24.433Z,85.61
2023-01-08T20:06:52.309Z,85.99
2023-01-08T20:09:20.230Z,85.77
2023-01-08T20:11:48.337Z,85.72
2023-01-08T20:14:19.277Z,86.13
2023-01-08T20:16:47.057Z,86.73
2023-01-08T20:19:15.069Z,86.94
2023-01-08T20:21:45.065Z,86.79
2023-01-08T20:24:14.576Z,86.79
2023-01-08T20:26:44.443Z,86.72
2023-01-08T20:29:14.633Z,86.70
2023-01-08T20:31:45.261Z,86.57
2023-01-08T20:34:15.926Z,86.50
2023-01-08T20:36:44.856Z,86.33
2023-01-08T20:39:16.640Z,86.23
2023-01-08T20:41:50.429Z,86.13
2023-01-08T20:44:16.086Z,86.11
2023-01-08T20:46:45.433Z,85.97
2023-01-08T20:49:17.187Z,85.87
2023-01-08T20:51:54.316Z,85.84
2023-01-08T20:54:16.988Z,85.79
2023-01-08T20:56:48.791Z,85.82
2023-01-08T20:59:16.868Z,85.84
2023-01-08T21:01:44.786Z,85.77
2023-01-08T21:04:12.864Z,85.70
2023-01-08T21:06:43.999Z,85.68
2023-01-08T21:09:13.822Z,85.71
2023-01-08T21:11:48.650Z,85.77
2023-01-08T21:14:18.887Z,85.82
2023-01-08T21:16:51.086Z,85.75
2023-01-08T21:19:20.012Z,85.73
2023-01-08T21:21:48.777Z,85.77
2023-01-08T21:24:23.738Z,85.64
2023-01-08T21:26:51.663Z,85.59
2023-01-08T21:29:26.864Z,85.58
2023-01-08T21:31:54.837Z,85.56
2023-01-08T21:34:23.504Z,85.56
2023-01-08T21:36:54.793Z,85.52
2023-01-08T21:39:24.438Z,85.42
2023-01-08T21:42:10.971Z,85.47
2023-01-08T21:45:00.608Z,85.38
2023-01-08T21:47:34.467Z,85.37
2023-01-08T21:50:03.612Z,85.32
2023-01-08T21:52:50.255Z,85.47
2023-01-08T21:55:18.408Z,85.60
2023-01-08T21:57:52.945Z,85.73
2023-01-08T22:00:28.669Z,85.75
2023-01-08T22:02:56.677Z,85.91
2023-01-08T22:05:26.313Z,85.98
2023-01-08T22:07:55.940Z,85.63
2023-01-08T22:10:23.977Z,85.28
2023-01-08T22:12:51.866Z,85.03
2023-01-08T22:15:19.849Z,85.03
2023-01-08T22:17:47.618Z,84.86
2023-01-08T22:20:16.215Z,84.72
2023-01-08T22:22:45.942Z,84.75
2023-01-08T22:25:13.837Z,84.70
2023-01-08T22:27:41.979Z,84.65
2023-01-08T22:30:11.050Z,84.59
2023-01-08T22:32:39.018Z,84.71
2023-01-08T22:35:07.289Z,84.83
2023-01-08T22:37:36.382Z,84.87
2023-01-08T22:40:05.371Z,85.00
2023-01-08T22:42:33.334Z,85.22
2023-01-08T22:45:01.539Z,85.34
2023-01-08T22:47:29.579Z,85.39
2023-01-08T22:49:57.472Z,85.51
2023-01-08T22:52:25.327Z,85.69
2023-01-08T22:54:54.993Z,86.03
2023-01-08T22:57:23.075Z,86.12
2023-01-08T22:59:52.012Z,86.34
2023-01-08T23:02:22.015Z,86.48
2023-01-08T23:04:53.954Z,86.74
2023-01-08T23:07:22.062Z,86.95
2023-01-08T23:09:50.313Z,86.98
2023-01-08T23:12:18.340Z,87.03
2023-01-08T23:14:46.641Z,87.21
2023-01-08T23:17:14.761Z,87.40
2023-01-08T23:19:42.644Z,87.34
2023-01-08T23:22:10.823Z,87.42
2023-01-08T23:24:39.089Z,87.54
2023-01-08T23:27:07.262Z,87.61
2023-01-08T23:29:35.514Z,87.61
2023-01-08T23:32:03.745Z,87.63
2023-01-08T23:34:32.135Z,87.64
2023-01-08T23:37:00.114Z,87.78
2023-01-08T23:39:28.556Z,88.01
2023-01-08T23:41:56.683Z,87.97
2023-01-08T23:44:24.640Z,88.16
2023-01-08T23:46:52.534Z,88.30
2023-01-08T23:49:20.611Z,88.36
2023-01-08T23:51:49.146Z,88.30
2023-01-08T23:54:17.357Z,88.35
2023-01-08T23:56:45.473Z,88.52
2023-01-08T23:59:13.620Z,88.71
